Time;durP1;ratioP1;P1;durP2;ratioP2;P2;SDS_P1;SDS_P2;PMS_P1;PMS_P2;Temp;Humidity;BMP_temperature;BMP_pressure;BME280_temperature;BME280_humidity;BME280_pressure;Samples;Min_cycle;Max_cycle;Signal;HPM_P1;HPM_P2
2022/06/11 00:00:49;;;;;;;0.00;0.00;;;15.70;99.90;;;;;;5055722;28;20191;-69
2022/06/11 00:03:17;;;;;;;0.00;0.00;;;15.80;99.90;;;;;;5049239;28;20280;-69
2022/06/11 00:05:45;;;;;;;0.00;0.00;;;15.70;99.90;;;;;;5034995;28;20244;-68
2022/06/11 00:08:13;;;;;;;0.00;0.00;;;15.60;99.90;;;;;;5042602;28;20260;-69
2022/06/11 00:10:41;;;;;;;0.05;0.05;;;15.60;99.90;;;;;;5054012;28;20207;-69
2022/06/11 00:13:09;;;;;;;0.00;0.00;;;15.50;1.00;;;;;;5040505;28;20237;-69
2022/06/11 00:15:38;;;;;;;0.00;0.00;;;15.50;1.00;;;;;;5033598;28;20210;-69
2022/06/11 00:18:07;;;;;;;0.05;0.05;;;15.50;1.00;;;;;;5032366;28;20245;-69
2022/06/11 00:20:35;;;;;;;0.08;0.08;;;15.40;1.00;;;;;;5033843;28;20199;-68
2022/06/11 00:23:03;;;;;;;0.00;0.00;;;15.30;1.00;;;;;;5034196;28;20195;-69
2022/06/11 00:25:32;;;;;;;0.08;0.08;;;15.30;1.00;;;;;;5031722;28;20230;-68
2022/06/11 00:28:01;;;;;;;0.00;0.00;;;15.40;1.00;;;;;;5033108;28;20290;-69
2022/06/11 00:30:29;;;;;;;0.03;0.03;;;15.50;1.00;;;;;;5032879;28;20195;-69
2022/06/11 00:32:57;;;;;;;0.00;0.00;;;15.50;99.90;;;;;;5034657;28;20199;-69
2022/06/11 00:35:27;;;;;;;0.00;0.00;;;15.40;1.00;;;;;;5033193;28;20269;-69
2022/06/11 00:37:55;;;;;;;0.10;0.10;;;15.30;1.00;;;;;;5033853;28;20187;-69
2022/06/11 00:40:25;;;;;;;0.00;0.00;;;15.30;1.00;;;;;;5033076;28;20192;-70
2022/06/11 00:42:54;;;;;;;0.00;0.00;;;15.30;1.00;;;;;;5033266;28;20603;-69
2022/06/11 00:45:28;;;;;;;0.00;0.00;;;15.20;1.00;;;;;;5033405;28;20191;-69
2022/06/11 00:48:00;;;;;;;0.00;0.00;;;15.20;1.00;;;;;;5034130;28;20268;-69
2022/06/11 00:50:37;;;;;;;0.00;0.00;;;15.20;1.00;;;;;;5033356;28;20195;-69
2022/06/11 00:53:11;;;;;;;0.00;0.00;;;15.30;1.00;;;;;;5032998;28;20726;-69
2022/06/11 00:55:40;;;;;;;0.00;0.00;;;15.30;1.00;;;;;;5040711;28;20252;-69
2022/06/11 00:58:13;;;;;;;0.10;0.10;;;15.20;1.00;;;;;;5032940;28;20249;-69
2022/06/11 01:00:43;;;;;;;0.00;0.00;;;15.30;1.00;;;;;;5033161;28;20617;-69
2022/06/11 01:03:14;;;;;;;0.08;0.08;;;15.10;1.00;;;;;;5032959;28;20689;-69
2022/06/11 01:05:47;;;;;;;0.00;0.00;;;15.10;1.00;;;;;;5051673;28;20650;-69
2022/06/11 01:08:30;;;;;;;0.00;0.00;;;15.00;1.00;;;;;;5042159;28;20211;-69
2022/06/11 01:11:22;;;;;;;0.00;0.00;;;15.00;1.00;;;;;;5040330;28;20229;-69
2022/06/11 01:14:01;;;;;;;0.10;0.10;;;14.90;1.00;;;;;;5019756;28;20227;-68
2022/06/11 01:16:42;;;;;;;0.00;0.00;;;14.80;1.00;;;;;;5032121;28;20257;-69
2022/06/11 01:19:36;;;;;;;0.10;0.10;;;14.80;1.00;;;;;;5029462;28;20202;-69
2022/06/11 01:22:17;;;;;;;0.08;0.08;;;14.60;1.00;;;;;;5038926;28;20190;-69
2022/06/11 01:24:57;;;;;;;0.10;0.10;;;14.40;1.00;;;;;;5026404;28;20211;-69
2022/06/11 01:27:52;;;;;;;0.00;0.00;;;14.30;1.00;;;;;;5031981;28;20203;-69
2022/06/11 01:30:24;;;;;;;0.03;0.03;;;14.30;1.00;;;;;;5038483;28;20214;-70
2022/06/11 01:33:09;;;;;;;0.00;0.00;;;14.30;1.00;;;;;;5035230;28;20199;-70
2022/06/11 01:35:48;;;;;;;0.00;0.00;;;14.10;1.00;;;;;;5032380;28;20198;-69
2022/06/11 01:38:23;;;;;;;0.00;0.00;;;14.20;1.00;;;;;;5041112;28;20209;-69
2022/06/11 01:40:57;;;;;;;0.10;0.10;;;14.30;1.00;;;;;;5038553;28;20213;-69
2022/06/11 01:43:30;;;;;;;0.00;0.00;;;14.30;1.00;;;;;;5032995;28;20226;-69
2022/06/11 01:46:02;;;;;;;0.00;0.00;;;14.20;1.00;;;;;;5047291;28;20198;-69
2022/06/11 01:48:31;;;;;;;0.00;0.00;;;14.20;1.00;;;;;;5032671;28;20207;-69
2022/06/11 01:51:23;;;;;;;0.00;0.00;;;14.20;1.00;;;;;;5035328;28;20194;-69
2022/06/11 01:54:08;;;;;;;0.00;0.00;;;14.30;1.00;;;;;;5043460;28;20267;-69
2022/06/11 01:57:07;;;;;;;0.00;0.00;;;14.30;1.00;;;;;;5027477;28;20747;-70
2022/06/11 01:59:56;;;;;;;0.00;0.00;;;14.30;1.00;;;;;;5037653;28;20199;-69
2022/06/11 02:02:38;;;;;;;0.00;0.00;;;14.20;1.00;;;;;;5025877;28;20275;-69
2022/06/11 02:05:14;;;;;;;0.08;0.08;;;14.20;1.00;;;;;;5031559;28;20226;-69
2022/06/11 02:07:52;;;;;;;0.00;0.00;;;14.20;1.00;;;;;;5030943;28;20202;-68
2022/06/11 02:10:29;;;;;;;0.00;0.00;;;14.20;1.00;;;;;;5031415;28;20218;-69
2022/06/11 02:13:02;;;;;;;0.00;0.00;;;14.10;1.00;;;;;;5044082;28;20213;-68
2022/06/11 02:15:35;;;;;;;0.00;0.00;;;14.00;1.00;;;;;;5032090;28;20665;-67
2022/06/11 02:18:09;;;;;;;0.00;0.00;;;14.10;1.00;;;;;;5031026;28;20571;-68
2022/06/11 02:20:42;;;;;;;0.00;0.00;;;14.00;1.00;;;;;;5031127;28;20278;-68
2022/06/11 02:23:15;;;;;;;0.10;0.10;;;14.00;1.00;;;;;;5046951;28;20226;-68
2022/06/11 02:25:47;;;;;;;0.00;0.00;;;14.00;1.00;;;;;;5031466;28;20249;-68
2022/06/11 02:28:18;;;;;;;0.00;0.00;;;13.70;1.00;;;;;;5030310;28;20257;-68
2022/06/11 02:30:49;;;;;;;0.00;0.00;;;13.70;1.00;;;;;;5045923;28;20272;-69
2022/06/11 02:33:20;;;;;;;0.10;0.10;;;13.50;1.00;;;;;;5038694;28;20213;-68
2022/06/11 02:35:58;;;;;;;0.10;0.10;;;13.40;17.50;;;;;;5031757;28;20196;-68
2022/06/11 02:38:28;;;;;;;0.00;0.00;;;13.30;60.40;;;;;;5023922;28;20203;-68
2022/06/11 02:40:58;;;;;;;0.00;0.00;;;13.20;99.10;;;;;;5023204;28;20195;-68
2022/06/11 02:43:27;;;;;;;0.00;0.00;;;13.20;99.90;;;;;;5030918;28;20214;-69
2022/06/11 02:45:55;;;;;;;0.10;0.10;;;13.40;89.80;;;;;;5033488;28;20194;-68
2022/06/11 02:48:26;;;;;;;0.00;0.00;;;13.50;25.30;;;;;;5033887;28;20279;-68
2022/06/11 02:50:54;;;;;;;0.00;0.00;;;13.40;36.80;;;;;;5024211;28;20227;-69
2022/06/11 02:53:21;;;;;;;0.05;0.05;;;13.40;42.70;;;;;;5029320;28;20230;-69
2022/06/11 02:55:50;;;;;;;0.00;0.00;;;13.40;53.40;;;;;;5039076;28;20194;-69
2022/06/11 02:58:18;;;;;;;0.10;0.10;;;13.50;16.60;;;;;;5042509;28;20198;-69
2022/06/11 03:00:48;;;;;;;0.10;0.10;;;13.50;1.10;;;;;;5048712;28;20927;-69
2022/06/11 03:03:16;;;;;;;0.10;0.10;;;13.40;11.40;;;;;;5036032;28;20268;-69
2022/06/11 03:05:45;;;;;;;0.10;0.10;;;13.40;25.10;;;;;;5034642;28;20203;-69
2022/06/11 03:08:14;;;;;;;0.00;0.00;;;13.40;49.10;;;;;;5038705;28;20243;-69
2022/06/11 03:10:42;;;;;;;0.00;0.00;;;13.30;38.20;;;;;;5034453;28;20230;-69
2022/06/11 03:13:11;;;;;;;0.10;0.10;;;13.40;28.60;;;;;;5034385;28;20334;-69
2022/06/11 03:15:40;;;;;;;0.10;0.10;;;13.40;36.30;;;;;;5043513;28;20229;-69
2022/06/11 03:18:08;;;;;;;0.10;0.10;;;13.60;1.00;;;;;;5033369;28;20203;-69
2022/06/11 03:20:36;;;;;;;0.10;0.10;;;13.50;1.00;;;;;;5035598;28;20729;-69
2022/06/11 03:23:05;;;;;;;0.10;0.10;;;13.50;1.00;;;;;;5021780;28;20207;-69
2022/06/11 03:25:34;;;;;;;0.10;0.10;;;13.50;1.00;;;;;;5033304;28;20206;-70
2022/06/11 03:28:06;;;;;;;0.08;0.08;;;13.30;37.00;;;;;;5041059;28;20691;-68
2022/06/11 03:30:34;;;;;;;0.00;0.00;;;13.30;48.90;;;;;;5041918;28;20226;-68
2022/06/11 03:33:02;;;;;;;0.10;0.10;;;13.30;51.60;;;;;;5049783;28;20245;-68
2022/06/11 03:35:30;;;;;;;0.10;0.10;;;13.30;78.50;;;;;;5045966;28;20205;-69
2022/06/11 03:37:58;;;;;;;0.10;0.10;;;13.30;43.30;;;;;;5037187;28;20241;-69
2022/06/11 03:40:27;;;;;;;0.10;0.10;;;13.40;24.90;;;;;;5038000;28;20316;-68
2022/06/11 03:42:55;;;;;;;0.10;0.10;;;13.40;3.70;;;;;;5040127;28;20199;-69
2022/06/11 03:45:23;;;;;;;0.10;0.10;;;13.30;25.70;;;;;;5032639;28;20198;-69
2022/06/11 03:47:51;;;;;;;0.10;0.10;;;13.50;1.00;;;;;;5027061;28;20240;-70
2022/06/11 03:50:22;;;;;;;0.10;0.10;;;13.40;1.00;;;;;;5033958;28;20222;-70
2022/06/11 03:52:51;;;;;;;0.00;0.00;;;13.30;1.00;;;;;;5025424;28;20191;-69
2022/06/11 03:55:20;;;;;;;0.00;0.00;;;13.30;12.50;;;;;;5034700;28;20257;-69
2022/06/11 03:57:49;;;;;;;0.00;0.00;;;13.20;46.60;;;;;;5034616;28;20748;-69
2022/06/11 04:01:14;;;;;;;0.00;0.00;;;13.30;47.90;;;;;;5037093;28;20188;-69
2022/06/11 04:03:09;;;;;;;0.10;0.10;;;13.20;49.20;;;;;;5044575;28;20265;-69
2022/06/11 04:05:39;;;;;;;0.05;0.05;;;13.30;71.60;;;;;;5033975;28;20741;-69
2022/06/11 04:08:08;;;;;;;0.10;0.10;;;13.30;52.00;;;;;;5041876;28;20242;-69
2022/06/11 04:10:37;;;;;;;0.10;0.10;;;13.40;19.20;;;;;;5036713;28;20210;-69
2022/06/11 04:13:08;;;;;;;0.10;0.10;;;13.30;35.00;;;;;;5041466;28;20199;-69
2022/06/11 04:15:37;;;;;;;0.00;0.00;;;13.30;44.50;;;;;;5033358;28;20567;-69
2022/06/11 04:18:07;;;;;;;0.00;0.00;;;13.30;36.90;;;;;;5039396;28;20194;-69
2022/06/11 04:20:35;;;;;;;0.00;0.00;;;13.30;61.60;;;;;;5049807;28;20591;-68
2022/06/11 04:23:03;;;;;;;0.10;0.10;;;13.40;53.00;;;;;;5046411;28;20195;-69
2022/06/11 04:25:31;;;;;;;0.00;0.00;;;13.40;56.70;;;;;;5033026;28;20249;-68
2022/06/11 04:27:59;;;;;;;0.00;0.00;;;13.40;30.80;;;;;;5035530;28;20206;-68
2022/06/11 04:30:28;;;;;;;0.00;0.00;;;13.40;33.00;;;;;;5033244;28;20622;-67
2022/06/11 04:32:56;;;;;;;0.10;0.10;;;13.40;46.00;;;;;;5032808;28;20202;-68
2022/06/11 04:35:24;;;;;;;0.00;0.00;;;13.40;49.40;;;;;;5049151;28;20209;-68
2022/06/11 04:37:51;;;;;;;0.10;0.10;;;13.50;42.70;;;;;;5037968;28;20195;-68
2022/06/11 04:40:19;;;;;;;0.10;0.10;;;13.50;68.70;;;;;;5033258;28;20195;-68
2022/06/11 04:42:47;;;;;;;0.00;0.00;;;13.50;67.90;;;;;;5033192;28;20222;-68
2022/06/11 04:45:16;;;;;;;0.10;0.10;;;13.50;84.50;;;;;;5038602;28;20752;-68
2022/06/11 04:47:46;;;;;;;0.10;0.10;;;13.60;39.50;;;;;;5032520;28;20226;-69
2022/06/11 04:50:17;;;;;;;0.10;0.10;;;13.70;32.20;;;;;;5038346;28;20221;-69
2022/06/11 04:52:45;;;;;;;0.10;0.10;;;13.70;21.40;;;;;;5040847;28;20195;-69
2022/06/11 04:55:13;;;;;;;0.00;0.00;;;13.70;1.00;;;;;;5032749;28;20219;-69
2022/06/11 04:57:43;;;;;;;0.00;0.00;;;13.80;1.00;;;;;;5030758;28;20942;-69
2022/06/11 05:00:14;;;;;;;0.00;0.00;;;13.90;1.00;;;;;;5051214;28;20273;-69
2022/06/11 05:02:42;;;;;;;0.00;0.00;;;13.90;1.00;;;;;;5044023;28;20221;-69
2022/06/11 05:05:12;;;;;;;0.00;0.00;;;14.00;1.00;;;;;;5033468;28;20247;-69
2022/06/11 05:07:41;;;;;;;0.10;0.10;;;14.10;1.00;;;;;;5035578;28;20199;-68
2022/06/11 05:10:10;;;;;;;0.00;0.00;;;14.20;1.00;;;;;;5033978;28;20602;-68
2022/06/11 05:12:38;;;;;;;0.05;0.05;;;14.30;1.00;;;;;;5032292;28;20198;-68
2022/06/11 05:15:07;;;;;;;0.00;0.00;;;14.30;1.00;;;;;;5034078;28;20698;-69
2022/06/11 05:17:35;;;;;;;0.00;0.00;;;14.40;1.00;;;;;;5037626;28;20676;-69
2022/06/11 05:20:05;;;;;;;0.00;0.00;;;14.50;1.00;;;;;;5045131;28;20208;-69
2022/06/11 05:22:34;;;;;;;0.00;0.00;;;14.60;1.00;;;;;;5036164;28;20237;-69
2022/06/11 05:25:02;;;;;;;0.00;0.00;;;14.80;1.00;;;;;;5035759;28;20584;-68
2022/06/11 05:27:30;;;;;;;0.10;0.10;;;14.80;1.00;;;;;;5038868;28;20203;-67
2022/06/11 05:30:00;;;;;;;0.00;0.00;;;14.90;1.00;;;;;;5037195;28;20689;-68
2022/06/11 05:32:35;;;;;;;0.00;0.00;;;14.90;1.00;;;;;;5033131;28;20223;-69
2022/06/11 05:35:07;;;;;;;0.00;0.00;;;15.10;1.00;;;;;;5037879;28;20723;-68
2022/06/11 05:37:36;;;;;;;0.00;0.00;;;15.20;1.00;;;;;;5044077;28;20621;-68
2022/06/11 05:40:05;;;;;;;0.00;0.00;;;15.30;1.00;;;;;;5051945;28;20186;-68
2022/06/11 05:42:34;;;;;;;0.00;0.00;;;15.40;1.00;;;;;;5049258;28;20194;-69
2022/06/11 05:45:01;;;;;;;0.08;0.08;;;15.50;1.00;;;;;;5032328;28;20219;-68
2022/06/11 05:47:30;;;;;;;0.00;0.00;;;15.60;99.90;;;;;;5025106;28;20550;-69
2022/06/11 05:50:00;;;;;;;0.00;0.00;;;15.70;99.90;;;;;;5039990;28;20203;-68
2022/06/11 05:52:32;;;;;;;0.10;0.10;;;15.90;99.90;;;;;;5040305;28;20241;-69
2022/06/11 05:55:02;;;;;;;0.00;0.00;;;16.00;99.90;;;;;;5072020;22;20218;-69
2022/06/11 05:57:30;;;;;;;0.00;0.00;;;16.20;99.90;;;;;;5051163;28;20195;-69
2022/06/11 06:00:03;;;;;;;0.00;0.00;;;16.30;1.00;;;;;;5050904;28;20198;-69
2022/06/11 06:02:41;;;;;;;0.00;0.00;;;16.40;1.00;;;;;;5055018;28;20619;-69
2022/06/11 06:05:11;;;;;;;0.08;0.08;;;16.60;1.00;;;;;;5063319;28;20221;-69
2022/06/11 06:07:38;;;;;;;0.00;0.00;;;16.70;1.00;;;;;;5054405;28;20209;-69
2022/06/11 06:10:08;;;;;;;0.00;0.00;;;16.80;1.00;;;;;;5051542;28;20209;-68
2022/06/11 06:12:37;;;;;;;0.00;0.00;;;16.80;1.00;;;;;;5051564;28;20226;-69
2022/06/11 06:15:09;;;;;;;0.00;0.00;;;16.90;1.00;;;;;;5051989;28;20218;-69
2022/06/11 06:17:36;;;;;;;0.00;0.00;;;17.00;1.00;;;;;;5050985;28;20742;-68
2022/06/11 06:20:06;;;;;;;0.00;0.00;;;17.10;1.00;;;;;;5052191;28;20236;-68
2022/06/11 06:22:34;;;;;;;0.00;0.00;;;17.20;1.00;;;;;;5052794;28;20221;-69
2022/06/11 06:25:03;;;;;;;0.00;0.00;;;17.30;1.00;;;;;;5050518;28;20233;-67
2022/06/11 06:27:32;;;;;;;0.00;0.00;;;17.30;1.00;;;;;;5050708;28;20277;-68
2022/06/11 06:30:00;;;;;;;0.00;0.00;;;17.40;99.90;;;;;;5051167;28;20197;-67
2022/06/11 06:32:28;;;;;;;0.00;0.00;;;17.50;99.90;;;;;;5048831;28;20320;-68
2022/06/11 06:34:56;;;;;;;0.00;0.00;;;17.60;99.90;;;;;;5048169;28;20217;-68
2022/06/11 06:37:24;;;;;;;0.00;0.00;;;17.70;99.90;;;;;;5047424;28;20206;-68
2022/06/11 06:39:52;;;;;;;0.00;0.00;;;17.70;99.90;;;;;;5050382;28;20202;-68
2022/06/11 06:42:20;;;;;;;0.00;0.00;;;17.70;54.40;;;;;;5048105;28;20197;-68
2022/06/11 06:44:51;;;;;;;0.00;0.00;;;17.80;1.00;;;;;;5043790;28;20574;-68
2022/06/11 06:47:19;;;;;;;0.00;0.00;;;17.80;1.00;;;;;;5050062;28;20194;-67
2022/06/11 06:49:47;;;;;;;0.00;0.00;;;17.90;13.70;;;;;;5048987;28;20501;-68
2022/06/11 06:52:14;;;;;;;0.00;0.00;;;17.90;1.00;;;;;;5048481;28;20233;-68
2022/06/11 06:54:42;;;;;;;0.00;0.00;;;18.00;1.00;;;;;;5047062;28;20571;-68
2022/06/11 06:57:10;;;;;;;0.00;0.00;;;18.10;1.00;;;;;;5049269;28;20211;-68
2022/06/11 06:59:38;;;;;;;0.00;0.00;;;18.20;1.00;;;;;;5047191;28;20202;-70
2022/06/11 07:02:07;;;;;;;0.00;0.00;;;18.30;1.00;;;;;;5050147;28;20198;-68
2022/06/11 07:04:35;;;;;;;0.00;0.00;;;18.40;99.90;;;;;;5050915;28;20742;-70
2022/06/11 07:07:03;;;;;;;0.00;0.00;;;18.50;99.90;;;;;;5049949;28;20248;-68
2022/06/11 07:09:31;;;;;;;0.00;0.00;;;18.50;1.00;;;;;;5050634;28;20217;-68
2022/06/11 07:11:59;;;;;;;0.00;0.00;;;18.50;1.00;;;;;;5050983;28;20269;-68
2022/06/11 07:14:26;;;;;;;0.00;0.00;;;18.50;1.00;;;;;;5049245;28;20226;-68
2022/06/11 07:16:57;;;;;;;0.00;0.00;;;18.60;1.00;;;;;;5046654;28;20206;-68
2022/06/11 07:19:32;;;;;;;0.00;0.00;;;18.70;1.00;;;;;;5048789;28;20676;-68
2022/06/11 07:22:04;;;;;;;0.00;0.00;;;18.70;1.00;;;;;;5054734;28;20668;-69
2022/06/11 07:24:36;;;;;;;0.00;0.00;;;18.80;1.00;;;;;;5053799;28;20735;-68
2022/06/11 07:27:07;;;;;;;0.00;0.00;;;18.90;1.00;;;;;;5047562;28;20261;-68
2022/06/11 07:29:41;;;;;;;0.00;0.00;;;19.00;1.00;;;;;;5051354;28;20217;-69
2022/06/11 07:32:15;;;;;;;0.00;0.00;;;19.20;1.00;;;;;;5055190;28;20226;-69
2022/06/11 07:34:45;;;;;;;0.00;0.00;;;19.30;1.00;;;;;;5061939;28;20587;-69
2022/06/11 07:37:13;;;;;;;0.00;0.00;;;19.50;74.50;;;;;;5056374;28;20198;-68
2022/06/11 07:39:41;;;;;;;0.00;0.00;;;19.60;1.00;;;;;;5055081;28;20267;-69
2022/06/11 07:42:10;;;;;;;0.00;0.00;;;19.70;1.00;;;;;;5055073;28;20210;-68
2022/06/11 07:44:38;;;;;;;0.00;0.00;;;19.80;99.90;;;;;;5057549;28;20230;-69
2022/06/11 07:47:07;;;;;;;0.00;0.00;;;20.00;99.90;;;;;;5057121;28;20228;-69
2022/06/11 07:49:37;;;;;;;0.00;0.00;;;20.10;20.50;;;;;;5062291;28;20194;-68
2022/06/11 07:52:06;;;;;;;0.00;0.00;;;20.30;99.90;;;;;;5055897;28;20214;-69
2022/06/11 07:54:36;;;;;;;0.00;0.00;;;20.40;1.00;;;;;;5055489;28;20238;-69
2022/06/11 07:57:05;;;;;;;0.00;0.00;;;20.60;1.00;;;;;;5052793;28;20202;-70
2022/06/11 07:59:36;;;;;;;0.00;0.00;;;20.70;4.10;;;;;;5050615;28;20197;-70
2022/06/11 08:02:14;;;;;;;0.00;0.00;;;20.90;1.00;;;;;;5055199;28;20194;-69
2022/06/11 08:04:42;;;;;;;0.00;0.00;;;21.00;1.00;;;;;;5050879;28;20222;-70
2022/06/11 08:07:11;;;;;;;0.00;0.00;;;21.10;1.00;;;;;;5054436;28;20199;-70
2022/06/11 08:09:39;;;;;;;0.00;0.00;;;21.40;1.00;;;;;;5052269;28;20210;-70
2022/06/11 08:12:07;;;;;;;0.00;0.00;;;21.40;99.90;;;;;;5051637;28;20215;-70
2022/06/11 08:14:36;;;;;;;0.00;0.00;;;21.60;99.90;;;;;;5064846;28;20222;-70
2022/06/11 08:17:07;;;;;;;0.00;0.00;;;21.80;1.00;;;;;;5066675;28;20253;-70
2022/06/11 08:19:35;;;;;;;0.00;0.00;;;21.80;99.90;;;;;;5063018;28;20205;-68
2022/06/11 08:22:08;;;;;;;0.00;0.00;;;21.90;99.90;;;;;;5055238;28;20256;-68
2022/06/11 08:24:37;;;;;;;0.00;0.00;;;22.00;99.90;;;;;;5053246;28;20607;-70
2022/06/11 08:27:06;;;;;;;0.00;0.00;;;22.00;99.90;;;;;;5059847;28;20202;-69
2022/06/11 08:29:33;;;;;;;0.00;0.00;;;22.10;99.90;;;;;;5058848;28;20198;-68
2022/06/11 08:32:01;;;;;;;0.00;0.00;;;22.30;99.90;;;;;;5056602;28;20191;-68
2022/06/11 08:34:31;;;;;;;0.00;0.00;;;22.40;99.90;;;;;;5056218;28;20636;-68
2022/06/11 08:36:59;;;;;;;0.00;0.00;;;22.50;99.90;;;;;;5059562;28;20216;-69
2022/06/11 08:39:26;;;;;;;0.00;0.00;;;22.40;99.90;;;;;;5066410;28;20209;-71
2022/06/11 08:41:56;;;;;;;0.00;0.00;;;22.50;99.90;;;;;;5054224;28;20198;-69
2022/06/11 08:44:25;;;;;;;0.00;0.00;;;22.60;99.90;;;;;;5057035;28;20626;-69
2022/06/11 08:46:53;;;;;;;0.00;0.00;;;22.70;99.90;;;;;;5065400;28;20189;-70
2022/06/11 08:49:32;;;;;;;0.00;0.00;;;22.70;99.90;;;;;;5066738;28;20202;-69
2022/06/11 08:52:10;;;;;;;0.00;0.00;;;22.70;65.80;;;;;;5054647;28;20673;-69
2022/06/11 08:54:42;;;;;;;0.00;0.00;;;22.90;53.00;;;;;;5044975;28;20257;-69
2022/06/11 08:57:19;;;;;;;0.00;0.00;;;23.10;38.90;;;;;;5061678;28;20212;-68
2022/06/11 09:00:02;;;;;;;0.00;0.00;;;23.20;17.00;;;;;;5061614;28;20213;-70
2022/06/11 09:02:47;;;;;;;0.00;0.00;;;23.20;2.70;;;;;;5057833;28;20206;-68
2022/06/11 09:05:28;;;;;;;0.00;0.00;;;23.30;2.90;;;;;;5063518;28;20580;-70
2022/06/11 09:08:12;;;;;;;0.00;0.00;;;23.10;1.00;;;;;;5052839;28;20201;-68
2022/06/11 09:11:04;;;;;;;0.00;0.00;;;23.00;1.00;;;;;;5051068;28;20211;-69
2022/06/11 09:14:02;;;;;;;0.00;0.00;;;22.90;1.10;;;;;;5050542;28;20631;-69
2022/06/11 09:16:44;;;;;;;0.00;0.00;;;22.90;8.60;;;;;;5047547;28;20669;-68
2022/06/11 09:19:36;;;;;;;0.00;0.00;;;22.90;2.60;;;;;;5053950;28;20198;-70
2022/06/11 09:22:18;;;;;;;0.00;0.00;;;22.90;1.00;;;;;;5059517;28;20198;-70
2022/06/11 09:25:09;;;;;;;0.00;0.00;;;22.90;1.00;;;;;;5058407;28;20525;-71
2022/06/11 09:27:40;;;;;;;0.00;0.00;;;23.00;1.00;;;;;;5055812;28;20539;-70
2022/06/11 09:30:12;;;;;;;0.00;0.00;;;23.00;1.00;;;;;;5054168;28;20229;-70
2022/06/11 09:32:48;;;;;;;0.00;0.00;;;23.20;1.00;;;;;;5045334;28;20561;-70
2022/06/11 09:35:21;;;;;;;0.00;0.00;;;23.20;1.00;;;;;;5033688;28;20249;-71
2022/06/11 09:38:02;;;;;;;0.00;0.00;;;23.30;1.00;;;;;;5055908;28;20667;-70
2022/06/11 09:40:39;;;;;;;0.00;0.00;;;23.40;1.00;;;;;;5051536;28;20210;-72
2022/06/11 09:43:39;;;;;;;0.00;0.00;;;23.30;1.00;;;;;;5050764;28;20197;-70
2022/06/11 09:46:18;;;;;;;0.00;0.00;;;23.40;1.00;;;;;;5029324;28;20210;-70
2022/06/11 09:49:01;;;;;;;0.00;0.00;;;23.50;1.00;;;;;;5051008;28;20205;-70
2022/06/11 09:51:38;;;;;;;0.00;0.00;;;23.70;1.00;;;;;;5050762;28;20202;-70
2022/06/11 09:54:30;;;;;;;0.00;0.00;;;23.80;1.00;;;;;;5054463;28;20313;-70
2022/06/11 09:57:11;;;;;;;0.00;0.00;;;23.90;1.00;;;;;;5045057;28;20202;-70
2022/06/11 09:59:44;;;;;;;0.00;0.00;;;23.90;1.00;;;;;;5050008;28;20206;-72
2022/06/11 10:02:20;;;;;;;0.00;0.00;;;24.10;1.00;;;;;;5057892;28;20191;-70
2022/06/11 10:04:50;;;;;;;0.00;0.00;;;24.30;1.00;;;;;;5054385;28;20244;-67
2022/06/11 10:07:22;;;;;;;0.00;0.00;;;24.50;1.00;;;;;;5049834;28;20202;-70
2022/06/11 10:09:57;;;;;;;0.00;0.00;;;24.50;1.00;;;;;;5054248;28;20205;-70
2022/06/11 10:12:37;;;;;;;0.00;0.00;;;24.70;1.00;;;;;;5050150;28;20202;-72
2022/06/11 10:15:14;;;;;;;0.00;0.00;;;24.80;1.00;;;;;;5050292;28;20233;-70
2022/06/11 10:17:53;;;;;;;0.00;0.00;;;24.70;1.00;;;;;;5058969;28;20203;-67
2022/06/11 10:20:25;;;;;;;0.00;0.00;;;24.70;1.00;;;;;;5051293;28;20194;-69
2022/06/11 10:22:59;;;;;;;0.00;0.00;;;24.60;1.00;;;;;;5037221;28;20206;-68
2022/06/11 10:25:32;;;;;;;0.00;0.00;;;24.50;1.00;;;;;;5049237;28;20223;-68
2022/06/11 10:28:05;;;;;;;0.00;0.00;;;24.60;1.00;;;;;;5050678;28;20195;-69
2022/06/11 10:30:42;;;;;;;0.00;0.00;;;24.50;1.00;;;;;;5051431;28;20232;-68
2022/06/11 10:33:21;;;;;;;0.00;0.00;;;24.50;1.00;;;;;;5052457;28;20301;-68
2022/06/11 10:35:53;;;;;;;0.00;0.00;;;24.70;1.00;;;;;;5051300;28;20626;-68
2022/06/11 10:38:31;;;;;;;0.00;0.00;;;24.70;1.00;;;;;;5053826;28;20194;-69
2022/06/11 10:41:00;;;;;;;0.00;0.00;;;24.90;1.00;;;;;;5052201;28;20194;-69
2022/06/11 10:43:35;;;;;;;0.00;0.00;;;25.00;1.00;;;;;;5050848;28;20632;-69
2022/06/11 10:46:03;;;;;;;0.00;0.00;;;25.00;1.00;;;;;;5051054;28;20537;-68
2022/06/11 10:48:36;;;;;;;0.00;0.00;;;24.80;1.00;;;;;;5050927;28;20248;-69
2022/06/11 10:51:13;;;;;;;0.00;0.00;;;24.70;1.00;;;;;;5051049;28;20244;-69
2022/06/11 10:53:54;;;;;;;0.00;0.00;;;24.80;1.00;;;;;;5050816;28;20653;-68
2022/06/11 10:56:27;;;;;;;0.00;0.00;;;24.90;1.00;;;;;;5050887;28;20248;-68
2022/06/11 10:59:01;;;;;;;0.00;0.00;;;24.80;1.00;;;;;;5050328;28;20205;-69
2022/06/11 11:01:34;;;;;;;0.00;0.00;;;24.70;1.00;;;;;;5050760;28;20247;-69
2022/06/11 11:04:26;;;;;;;0.00;0.00;;;24.70;1.00;;;;;;5051552;28;20215;-68
2022/06/11 11:07:12;;;;;;;0.00;0.00;;;24.40;1.00;;;;;;5054321;28;20198;-68
2022/06/11 11:09:40;;;;;;;0.00;0.00;;;24.30;1.00;;;;;;5054175;28;20254;-68
2022/06/11 11:12:19;;;;;;;0.00;0.00;;;24.10;1.00;;;;;;5050969;28;20564;-68
2022/06/11 11:14:55;;;;;;;0.00;0.00;;;24.00;1.00;;;;;;5054949;28;20276;-67
2022/06/11 11:17:27;;;;;;;0.00;0.00;;;24.00;1.00;;;;;;5035245;28;20203;-68
2022/06/11 11:22:54;;;;;;;0.00;0.00;;;24.20;1.00;;;;;;5047933;28;20364;-68
2022/06/11 11:25:28;;;;;;;0.00;0.00;;;24.30;1.00;;;;;;5054814;28;20272;-68
2022/06/11 11:27:58;;;;;;;0.00;0.00;;;24.40;1.00;;;;;;5054109;28;20209;-69
2022/06/11 11:30:33;;;;;;;0.00;0.00;;;24.50;1.00;;;;;;5054149;28;20190;-69
2022/06/11 11:33:22;;;;;;;0.00;0.00;;;24.70;1.00;;;;;;5054810;28;20200;-69
2022/06/11 11:36:17;;;;;;;0.00;0.00;;;24.90;1.00;;;;;;5054257;28;20191;-70
2022/06/11 11:38:45;;;;;;;0.00;0.00;;;25.20;1.00;;;;;;5053715;28;20576;-69
2022/06/11 11:41:25;;;;;;;0.00;0.00;;;25.40;1.00;;;;;;5054057;28;20195;-69
2022/06/11 11:43:57;;;;;;;0.00;0.00;;;25.50;1.00;;;;;;5054505;28;20559;-68
2022/06/11 11:46:28;;;;;;;0.00;0.00;;;25.60;1.00;;;;;;5054221;28;20200;-68
2022/06/11 11:48:58;;;;;;;0.00;0.00;;;25.60;1.00;;;;;;5054089;28;20229;-68
2022/06/11 11:51:33;;;;;;;0.00;0.00;;;25.30;1.00;;;;;;5054098;28;20194;-68
2022/06/11 11:54:04;;;;;;;0.00;0.00;;;25.00;1.00;;;;;;5057187;28;20229;-68
2022/06/11 11:56:37;;;;;;;0.00;0.00;;;25.00;1.00;;;;;;5080629;22;20260;-69
2022/06/11 11:59:10;;;;;;;0.00;0.00;;;24.80;1.00;;;;;;5055300;28;20638;-68
2022/06/11 12:01:38;;;;;;;0.00;0.00;;;24.80;1.00;;;;;;5056221;28;20190;-68
2022/06/11 12:04:13;;;;;;;0.00;0.00;;;25.00;1.00;;;;;;5056570;28;20198;-69
2022/06/11 12:06:46;;;;;;;0.00;0.00;;;25.10;1.00;;;;;;5054518;28;20724;-68
2022/06/11 12:09:25;;;;;;;0.00;0.00;;;25.00;1.00;;;;;;5054026;28;20260;-69
2022/06/11 12:12:00;;;;;;;0.00;0.00;;;25.00;1.00;;;;;;5053957;28;20198;-68
2022/06/11 12:14:33;;;;;;;0.00;0.00;;;25.10;1.00;;;;;;5053787;28;20289;-68
2022/06/11 12:17:14;;;;;;;0.00;0.00;;;25.20;1.00;;;;;;5053659;28;20648;-68
2022/06/11 12:19:43;;;;;;;0.00;0.00;;;25.40;1.00;;;;;;5053631;28;20209;-69
2022/06/11 12:22:23;;;;;;;0.00;0.00;;;25.60;1.00;;;;;;5054328;28;20206;-68
2022/06/11 12:24:51;;;;;;;0.00;0.00;;;25.70;1.00;;;;;;5054140;28;20190;-69
2022/06/11 12:27:28;;;;;;;0.00;0.00;;;25.80;1.00;;;;;;5062124;28;20287;-69
2022/06/11 12:30:02;;;;;;;0.00;0.00;;;26.00;1.00;;;;;;5073889;28;20250;-68
2022/06/11 12:32:31;;;;;;;0.00;0.00;;;26.40;1.00;;;;;;5073419;28;20193;-67
2022/06/11 12:35:01;;;;;;;0.00;0.00;;;26.40;1.00;;;;;;5074024;28;20275;-68
2022/06/11 12:37:43;;;;;;;0.00;0.00;;;26.70;1.00;;;;;;5073141;28;20642;-67
2022/06/11 12:40:26;;;;;;;0.00;0.00;;;26.70;1.00;;;;;;5072407;28;20205;-68
2022/06/11 12:43:04;;;;;;;0.00;0.00;;;26.80;1.00;;;;;;5073490;28;20223;-68
2022/06/11 12:45:39;;;;;;;0.00;0.00;;;26.60;1.00;;;;;;5073196;28;20709;-67
2022/06/11 12:48:33;;;;;;;0.00;0.00;;;26.30;1.00;;;;;;5073542;28;20209;-68
2022/06/11 12:51:07;;;;;;;0.00;0.00;;;26.10;1.00;;;;;;5072943;28;20201;-68
2022/06/11 12:53:55;;;;;;;0.00;0.00;;;25.90;1.00;;;;;;5073393;28;20202;-68
2022/06/11 12:56:55;;;;;;;0.00;0.00;;;25.70;1.00;;;;;;5070547;28;20232;-68
2022/06/11 12:59:40;;;;;;;0.00;0.00;;;25.80;1.00;;;;;;5056251;28;20217;-69
2022/06/11 13:02:23;;;;;;;0.00;0.00;;;26.10;1.00;;;;;;5045718;28;20198;-69
2022/06/11 13:05:09;;;;;;;0.00;0.00;;;26.40;1.00;;;;;;5050459;28;20661;-68
2022/06/11 13:07:47;;;;;;;0.00;0.00;;;26.70;1.00;;;;;;5051722;28;20194;-68
2022/06/11 13:10:27;;;;;;;0.00;0.00;;;26.50;1.00;;;;;;5052667;28;20225;-68
2022/06/11 13:13:08;;;;;;;0.00;0.00;;;26.10;1.00;;;;;;5052643;28;20209;-70
2022/06/11 13:15:45;;;;;;;0.00;0.00;;;25.80;1.00;;;;;;5052787;28;20305;-68
2022/06/11 13:18:38;;;;;;;0.00;0.00;;;25.90;1.00;;;;;;5052612;28;20260;-68
2022/06/11 13:21:14;;;;;;;0.00;0.00;;;25.90;1.00;;;;;;5052769;28;20198;-68
2022/06/11 13:23:49;;;;;;;0.00;0.00;;;26.10;1.00;;;;;;5052284;28;20922;-67
2022/06/11 13:26:23;;;;;;;0.00;0.00;;;26.20;1.00;;;;;;5060606;28;20228;-68